sensor_id;sensor_type;location;lat;lon;timestamp;P1;durP1;ratioP1;P2;durP2;ratioP2
30346;SDS011;19047;44.782;20.468;2022-07-10T07:11:46;2.42;;;1.67;;
30346;SDS011;19047;44.782;20.468;2022-07-10T07:15:16;3.17;;;1.52;;
30346;SDS011;19047;44.782;20.468;2022-07-10T07:18:34;1.50;;;1.40;;
30346;SDS011;19047;44.782;20.468;2022-07-10T07:22:09;2.50;;;1.50;;
30346;SDS011;19047;44.782;20.468;2022-07-10T07:25:45;2.92;;;1.38;;
30346;SDS011;19047;44.782;20.468;2022-07-10T07:29:18;4.90;;;2.00;;
30346;SDS011;19047;44.782;20.468;2022-07-10T07:32:34;2.22;;;1.45;;
30346;SDS011;19047;44.782;20.468;2022-07-10T07:36:05;2.38;;;1.42;;
30346;SDS011;19047;44.782;20.468;2022-07-10T07:39:23;2.47;;;1.77;;
30346;SDS011;19047;44.782;20.468;2022-07-10T07:42:53;2.40;;;1.88;;
30346;SDS011;19047;44.782;20.468;2022-07-10T07:46:11;3.92;;;1.88;;
30346;SDS011;19047;44.782;20.468;2022-07-10T07:49:41;3.60;;;1.55;;
30346;SDS011;19047;44.782;20.468;2022-07-10T07:52:59;2.53;;;1.90;;
30346;SDS011;19047;44.782;20.468;2022-07-10T07:56:29;2.10;;;1.90;;
30346;SDS011;19047;44.782;20.468;2022-07-10T07:59:47;2.83;;;1.45;;
30346;SDS011;19047;44.782;20.468;2022-07-10T08:03:17;2.88;;;1.77;;
30346;SDS011;19047;44.782;20.468;2022-07-10T08:06:35;3.38;;;1.73;;
30346;SDS011;19047;44.782;20.468;2022-07-10T08:10:07;3.20;;;1.60;;
30346;SDS011;19047;44.782;20.468;2022-07-10T08:13:26;2.50;;;1.70;;
30346;SDS011;19047;44.782;20.468;2022-07-10T08:16:57;1.90;;;1.70;;
30346;SDS011;19047;44.782;20.468;2022-07-10T08:20:15;1.42;;;1.33;;
30346;SDS011;19047;44.782;20.468;2022-07-10T08:23:45;3.03;;;1.60;;
30346;SDS011;19047;44.782;20.468;2022-07-10T08:27:02;1.73;;;1.42;;
30346;SDS011;19047;44.782;20.468;2022-07-10T08:30:32;2.13;;;1.38;;
30346;SDS011;19047;44.782;20.468;2022-07-10T08:33:50;3.25;;;1.30;;
30346;SDS011;19047;44.782;20.468;2022-07-10T08:37:20;1.73;;;1.55;;
30346;SDS011;19047;44.782;20.468;2022-07-10T08:40:38;1.92;;;1.30;;
30346;SDS011;19047;44.782;20.468;2022-07-10T08:44:07;2.58;;;1.30;;
30346;SDS011;19047;44.782;20.468;2022-07-10T08:47:25;1.25;;;1.15;;
30346;SDS011;19047;44.782;20.468;2022-07-10T08:50:55;3.45;;;1.60;;
30346;SDS011;19047;44.782;20.468;2022-07-10T08:54:18;3.55;;;1.50;;
30346;SDS011;19047;44.782;20.468;2022-07-10T08:57:48;1.52;;;1.40;;
30346;SDS011;19047;44.782;20.468;2022-07-10T09:01:08;2.47;;;1.23;;
30346;SDS011;19047;44.782;20.468;2022-07-10T09:04:38;1.55;;;1.25;;
30346;SDS011;19047;44.782;20.468;2022-07-10T09:07:55;1.60;;;1.30;;
30346;SDS011;19047;44.782;20.468;2022-07-10T09:11:26;1.45;;;1.20;;
30346;SDS011;19047;44.782;20.468;2022-07-10T09:14:46;1.52;;;1.17;;
30346;SDS011;19047;44.782;20.468;2022-07-10T09:18:18;1.63;;;1.20;;
30346;SDS011;19047;44.782;20.468;2022-07-10T09:21:43;1.55;;;1.15;;
30346;SDS011;19047;44.782;20.468;2022-07-10T09:25:15;2.28;;;1.30;;
30346;SDS011;19047;44.782;20.468;2022-07-10T09:28:33;1.17;;;1.00;;
30346;SDS011;19047;44.782;20.468;2022-07-10T09:32:04;1.30;;;1.10;;
30346;SDS011;19047;44.782;20.468;2022-07-10T09:35:21;2.20;;;0.90;;
30346;SDS011;19047;44.782;20.468;2022-07-10T09:39:10;0.98;;;0.85;;
30346;SDS011;19047;44.782;20.468;2022-07-10T09:42:34;1.00;;;0.95;;
30346;SDS011;19047;44.782;20.468;2022-07-10T09:46:08;1.67;;;1.10;;
30346;SDS011;19047;44.782;20.468;2022-07-10T09:49:27;3.75;;;1.13;;
30346;SDS011;19047;44.782;20.468;2022-07-10T09:53:02;2.20;;;1.00;;
30346;SDS011;19047;44.782;20.468;2022-07-10T09:56:21;1.05;;;0.98;;
30346;SDS011;19047;44.782;20.468;2022-07-10T09:59:53;3.65;;;1.50;;
30346;SDS011;19047;44.782;20.468;2022-07-10T10:03:21;1.55;;;1.25;;
30346;SDS011;19047;44.782;20.468;2022-07-10T10:06:56;2.00;;;1.25;;
30346;SDS011;19047;44.782;20.468;2022-07-10T10:10:16;3.83;;;1.40;;
30346;SDS011;19047;44.782;20.468;2022-07-10T10:13:49;4.57;;;1.38;;
30346;SDS011;19047;44.782;20.468;2022-07-10T10:17:07;2.05;;;1.30;;
30346;SDS011;19047;44.782;20.468;2022-07-10T10:20:40;2.33;;;1.23;;
30346;SDS011;19047;44.782;20.468;2022-07-10T10:24:01;2.72;;;1.17;;
30346;SDS011;19047;44.782;20.468;2022-07-10T10:27:32;1.35;;;1.25;;
30346;SDS011;19047;44.782;20.468;2022-07-10T10:30:55;1.90;;;1.30;;
30346;SDS011;19047;44.782;20.468;2022-07-10T10:34:47;1.10;;;0.90;;
30346;SDS011;19047;44.782;20.468;2022-07-10T10:38:13;2.13;;;1.00;;
30346;SDS011;19047;44.782;20.468;2022-07-10T10:41:48;1.52;;;1.10;;
30346;SDS011;19047;44.782;20.468;2022-07-10T10:49:08;2.58;;;0.90;;
30346;SDS011;19047;44.782;20.468;2022-07-10T10:52:27;1.08;;;1.00;;
30346;SDS011;19047;44.782;20.468;2022-07-10T11:03:16;1.77;;;0.88;;
30346;SDS011;19047;44.782;20.468;2022-07-10T11:06:41;0.80;;;0.77;;
30346;SDS011;19047;44.782;20.468;2022-07-10T11:10:38;1.10;;;1.00;;
30346;SDS011;19047;44.782;20.468;2022-07-10T11:14:00;2.17;;;0.80;;
30346;SDS011;19047;44.782;20.468;2022-07-10T11:17:32;1.10;;;1.00;;
30346;SDS011;19047;44.782;20.468;2022-07-10T11:20:51;0.80;;;0.77;;
30346;SDS011;19047;44.782;20.468;2022-07-10T11:27:59;0.70;;;0.70;;
30346;SDS011;19047;44.782;20.468;2022-07-10T11:31:35;2.45;;;0.90;;
30346;SDS011;19047;44.782;20.468;2022-07-10T11:35:01;4.88;;;0.80;;
30346;SDS011;19047;44.782;20.468;2022-07-10T11:38:32;1.33;;;0.70;;
30346;SDS011;19047;44.782;20.468;2022-07-10T12:12:51;1.20;;;0.70;;
30346;SDS011;19047;44.782;20.468;2022-07-10T12:16:08;2.78;;;0.95;;
30346;SDS011;19047;44.782;20.468;2022-07-10T12:19:38;1.55;;;0.70;;
30346;SDS011;19047;44.782;20.468;2022-07-10T12:22:56;1.55;;;1.25;;
30346;SDS011;19047;44.782;20.468;2022-07-10T12:26:37;1.38;;;0.90;;
30346;SDS011;19047;44.782;20.468;2022-07-10T12:30:01;0.95;;;0.82;;
30346;SDS011;19047;44.782;20.468;2022-07-10T12:33:32;2.88;;;1.10;;
30346;SDS011;19047;44.782;20.468;2022-07-10T12:36:55;1.30;;;0.90;;
30346;SDS011;19047;44.782;20.468;2022-07-10T12:40:32;0.70;;;0.70;;
30346;SDS011;19047;44.782;20.468;2022-07-10T12:43:51;1.90;;;0.70;;
30346;SDS011;19047;44.782;20.468;2022-07-10T12:47:22;2.05;;;1.00;;
30346;SDS011;19047;44.782;20.468;2022-07-10T12:50:39;1.65;;;0.85;;
30346;SDS011;19047;44.782;20.468;2022-07-10T12:57:54;1.55;;;1.30;;
30346;SDS011;19047;44.782;20.468;2022-07-10T13:01:29;1.08;;;1.00;;
30346;SDS011;19047;44.782;20.468;2022-07-10T13:04:57;2.97;;;1.00;;
30346;SDS011;19047;44.782;20.468;2022-07-10T13:08:43;3.03;;;0.85;;
30346;SDS011;19047;44.782;20.468;2022-07-10T13:12:07;1.02;;;0.95;;
30346;SDS011;19047;44.782;20.468;2022-07-10T13:15:42;1.27;;;1.00;;
30346;SDS011;19047;44.782;20.468;2022-07-10T13:19:14;1.02;;;0.95;;
30346;SDS011;19047;44.782;20.468;2022-07-10T15:01:53;1.88;;;1.10;;
30346;SDS011;19047;44.782;20.468;2022-07-10T15:05:23;2.50;;;0.98;;
30346;SDS011;19047;44.782;20.468;2022-07-10T15:08:40;1.63;;;1.10;;
30346;SDS011;19047;44.782;20.468;2022-07-10T15:12:14;0.90;;;0.90;;
30346;SDS011;19047;44.782;20.468;2022-07-10T15:15:31;1.95;;;1.10;;
30346;SDS011;19047;44.782;20.468;2022-07-10T15:19:03;0.88;;;0.85;;
30346;SDS011;19047;44.782;20.468;2022-07-10T15:22:20;0.90;;;0.75;;
